sensor_id;sensor_type;location;lat;lon;timestamp;pressure;altitude;pressure_sealevel;temperature;humidity
47260;BME280;32999;52.412;4.890;2023-01-25T01:34:01;103795.22;;;2.43;100.00
47260;BME280;32999;52.412;4.890;2023-01-25T01:39:31;103804.41;;;2.55;100.00
47260;BME280;32999;52.412;4.890;2023-01-25T03:02:14;103739.00;;;2.41;100.00
47260;BME280;32999;52.412;4.890;2023-01-25T04:50:28;103669.84;;;2.53;100.00
47260;BME280;32999;52.412;4.890;2023-01-25T04:56:17;103673.94;;;2.40;100.00
47260;BME280;32999;52.412;4.890;2023-01-25T05:37:20;103648.31;;;2.22;100.00
47260;BME280;32999;52.412;4.890;2023-01-25T05:42:22;103656.72;;;2.10;100.00
47260;BME280;32999;52.412;4.890;2023-01-25T05:47:24;103611.03;;;1.87;100.00
47260;BME280;32999;52.412;4.890;2023-01-25T05:58:16;103674.56;;;2.25;100.00
47260;BME280;32999;52.412;4.890;2023-01-25T06:03:36;103676.53;;;2.20;100.00
47260;BME280;32999;52.412;4.890;2023-01-25T06:08:47;103658.97;;;2.41;100.00
47260;BME280;32999;52.412;4.890;2023-01-25T06:20:13;103657.38;;;2.36;100.00
47260;BME280;32999;52.412;4.890;2023-01-25T06:31:37;103657.13;;;2.43;100.00
47260;BME280;32999;52.412;4.890;2023-01-25T06:43:13;103661.00;;;2.54;100.00
47260;BME280;32999;52.412;4.890;2023-01-25T06:48:53;103650.56;;;2.51;100.00
47260;BME280;32999;52.412;4.890;2023-01-25T06:54:20;103650.25;;;2.38;100.00
47260;BME280;32999;52.412;4.890;2023-01-25T07:05:06;103653.25;;;2.29;100.00
47260;BME280;32999;52.412;4.890;2023-01-25T07:10:11;103651.97;;;2.39;100.00
47260;BME280;32999;52.412;4.890;2023-01-25T07:15:33;103657.97;;;2.43;100.00
47260;BME280;32999;52.412;4.890;2023-01-25T07:21:11;103641.03;;;2.27;100.00
47260;BME280;32999;52.412;4.890;2023-01-25T07:32:12;103627.59;;;2.33;100.00
47260;BME280;32999;52.412;4.890;2023-01-25T07:37:30;103630.00;;;2.39;100.00
47260;BME280;32999;52.412;4.890;2023-01-25T07:55:03;103610.06;;;2.32;100.00
47260;BME280;32999;52.412;4.890;2023-01-25T08:00:06;103592.63;;;2.08;100.00
47260;BME280;32999;52.412;4.890;2023-01-25T08:05:10;103600.44;;;1.67;100.00
47260;BME280;32999;52.412;4.890;2023-01-25T08:10:14;103606.53;;;1.69;100.00
47260;BME280;32999;52.412;4.890;2023-01-25T08:15:15;103609.44;;;1.61;100.00
47260;BME280;32999;52.412;4.890;2023-01-25T08:20:17;103604.03;;;1.43;100.00
47260;BME280;32999;52.412;4.890;2023-01-25T08:25:22;103593.81;;;1.57;100.00
47260;BME280;32999;52.412;4.890;2023-01-25T08:30:24;103606.75;;;1.85;100.00
47260;BME280;32999;52.412;4.890;2023-01-25T08:35:26;103589.19;;;2.05;100.00
47260;BME280;32999;52.412;4.890;2023-01-25T08:40:33;103579.25;;;2.12;100.00
47260;BME280;32999;52.412;4.890;2023-01-25T08:45:35;103576.34;;;2.18;100.00
47260;BME280;32999;52.412;4.890;2023-01-25T08:50:37;103584.91;;;2.23;100.00
47260;BME280;32999;52.412;4.890;2023-01-25T08:55:40;103611.97;;;1.86;100.00
47260;BME280;32999;52.412;4.890;2023-01-25T09:00:42;103571.75;;;2.01;100.00
47260;BME280;32999;52.412;4.890;2023-01-25T09:05:44;103569.16;;;2.22;100.00
47260;BME280;32999;52.412;4.890;2023-01-25T09:10:47;103562.34;;;1.96;100.00
47260;BME280;32999;52.412;4.890;2023-01-25T09:15:49;103566.06;;;2.32;100.00
47260;BME280;32999;52.412;4.890;2023-01-25T09:20:51;103563.34;;;2.14;100.00
47260;BME280;32999;52.412;4.890;2023-01-25T09:25:57;103483.81;;;1.82;100.00
47260;BME280;32999;52.412;4.890;2023-01-25T09:31:02;103491.22;;;1.94;100.00
47260;BME280;32999;52.412;4.890;2023-01-25T09:36:06;103548.09;;;2.00;100.00
47260;BME280;32999;52.412;4.890;2023-01-25T09:41:21;103547.97;;;2.03;100.00
47260;BME280;32999;52.412;4.890;2023-01-25T09:46:35;103528.63;;;2.23;100.00
47260;BME280;32999;52.412;4.890;2023-01-25T09:51:59;103526.00;;;2.43;100.00
47260;BME280;32999;52.412;4.890;2023-01-25T09:57:25;103501.81;;;2.52;100.00
47260;BME280;32999;52.412;4.890;2023-01-25T10:02:37;103478.38;;;2.46;100.00
47260;BME280;32999;52.412;4.890;2023-01-25T10:08:22;103487.84;;;2.50;100.00
47260;BME280;32999;52.412;4.890;2023-01-25T10:13:38;103485.63;;;2.41;100.00
47260;BME280;32999;52.412;4.890;2023-01-25T10:42:47;103438.84;;;2.45;100.00
47260;BME280;32999;52.412;4.890;2023-01-25T10:48:19;103435.19;;;2.85;100.00
47260;BME280;32999;52.412;4.890;2023-01-25T11:19:33;103381.38;;;3.40;100.00
47260;BME280;32999;52.412;4.890;2023-01-25T11:24:58;103373.97;;;3.30;100.00
47260;BME280;32999;52.412;4.890;2023-01-25T13:44:07;103113.63;;;2.90;100.00
47260;BME280;32999;52.412;4.890;2023-01-25T14:55:43;102985.94;;;2.42;100.00
47260;BME280;32999;52.412;4.890;2023-01-25T15:00:51;103027.66;;;2.51;100.00
47260;BME280;32999;52.412;4.890;2023-01-25T15:06:03;102999.34;;;2.37;100.00
47260;BME280;32999;52.412;4.890;2023-01-25T15:11:28;103011.03;;;2.49;100.00
47260;BME280;32999;52.412;4.890;2023-01-25T15:16:39;103034.81;;;2.32;100.00
47260;BME280;32999;52.412;4.890;2023-01-25T15:21:42;103035.91;;;2.45;100.00
47260;BME280;32999;52.412;4.890;2023-01-25T15:26:50;103040.25;;;2.46;100.00
47260;BME280;32999;52.412;4.890;2023-01-25T15:31:57;103001.94;;;2.22;100.00
47260;BME280;32999;52.412;4.890;2023-01-25T15:42:49;103045.88;;;2.56;100.00
47260;BME280;32999;52.412;4.890;2023-01-25T15:47:51;103025.34;;;2.28;100.00
47260;BME280;32999;52.412;4.890;2023-01-25T15:52:52;103029.34;;;2.52;100.00
47260;BME280;32999;52.412;4.890;2023-01-25T16:27:46;102969.69;;;2.17;100.00
47260;BME280;32999;52.412;4.890;2023-01-25T16:32:56;102947.72;;;2.16;100.00
47260;BME280;32999;52.412;4.890;2023-01-25T16:38:00;102956.47;;;1.99;100.00
47260;BME280;32999;52.412;4.890;2023-01-25T16:43:02;102917.16;;;2.45;100.00
47260;BME280;32999;52.412;4.890;2023-01-25T16:48:12;102878.91;;;1.53;100.00
47260;BME280;32999;52.412;4.890;2023-01-25T16:53:17;102822.84;;;0.81;100.00
47260;BME280;32999;52.412;4.890;2023-01-25T16:58:19;102874.81;;;1.48;100.00
47260;BME280;32999;52.412;4.890;2023-01-25T17:03:23;102799.91;;;1.19;100.00
47260;BME280;32999;52.412;4.890;2023-01-25T17:08:27;102890.63;;;1.48;100.00
47260;BME280;32999;52.412;4.890;2023-01-25T17:13:29;102861.47;;;1.68;100.00
47260;BME280;32999;52.412;4.890;2023-01-25T17:18:45;102864.97;;;1.51;100.00
47260;BME280;32999;52.412;4.890;2023-01-25T17:23:51;102853.75;;;1.81;100.00
47260;BME280;32999;52.412;4.890;2023-01-25T17:28:54;102698.38;;;0.79;100.00
47260;BME280;32999;52.412;4.890;2023-01-25T17:34:01;102850.13;;;1.83;100.00
47260;BME280;32999;52.412;4.890;2023-01-25T17:39:06;102851.63;;;1.54;100.00
47260;BME280;32999;52.412;4.890;2023-01-25T17:44:08;102838.75;;;1.65;100.00
47260;BME280;32999;52.412;4.890;2023-01-25T17:49:11;102812.34;;;1.67;100.00
47260;BME280;32999;52.412;4.890;2023-01-25T17:54:25;102806.41;;;1.29;100.00
47260;BME280;32999;52.412;4.890;2023-01-25T17:59:27;102814.53;;;1.42;100.00
47260;BME280;32999;52.412;4.890;2023-01-25T18:04:29;102742.13;;;1.16;100.00
47260;BME280;32999;52.412;4.890;2023-01-25T18:09:34;102826.31;;;1.85;100.00
47260;BME280;32999;52.412;4.890;2023-01-25T18:14:36;102806.91;;;1.70;100.00
47260;BME280;32999;52.412;4.890;2023-01-25T18:19:38;102808.00;;;1.49;100.00
47260;BME280;32999;52.412;4.890;2023-01-25T18:24:43;102727.59;;;1.42;100.00
47260;BME280;32999;52.412;4.890;2023-01-25T18:29:51;102737.69;;;1.66;100.00
47260;BME280;32999;52.412;4.890;2023-01-25T18:34:57;102782.13;;;2.05;100.00
47260;BME280;32999;52.412;4.890;2023-01-25T18:40:00;102764.59;;;1.56;100.00
47260;BME280;32999;52.412;4.890;2023-01-25T18:45:02;102765.22;;;1.77;100.00
47260;BME280;32999;52.412;4.890;2023-01-25T18:50:05;102764.13;;;1.65;100.00
47260;BME280;32999;52.412;4.890;2023-01-25T18:55:09;102738.22;;;1.73;100.00
47260;BME280;32999;52.412;4.890;2023-01-25T19:00:11;102680.59;;;1.50;100.00
47260;BME280;32999;52.412;4.890;2023-01-25T19:05:14;102598.78;;;1.04;100.00
47260;BME280;32999;52.412;4.890;2023-01-25T19:10:20;102740.34;;;2.14;100.00
47260;BME280;32999;52.412;4.890;2023-01-25T19:15:23;102637.94;;;1.59;100.00
47260;BME280;32999;52.412;4.890;2023-01-25T19:20:27;102729.38;;;1.90;100.00
47260;BME280;32999;52.412;4.890;2023-01-25T19:25:31;102722.06;;;2.11;100.00
47260;BME280;32999;52.412;4.890;2023-01-25T19:30:33;102709.66;;;2.13;100.00
47260;BME280;32999;52.412;4.890;2023-01-25T19:35:35;102563.56;;;1.07;100.00
47260;BME280;32999;52.412;4.890;2023-01-25T19:40:38;102578.00;;;1.15;100.00
47260;BME280;32999;52.412;4.890;2023-01-25T19:45:41;102707.44;;;2.21;100.00
47260;BME280;32999;52.412;4.890;2023-01-25T19:50:43;102702.38;;;2.32;100.00
47260;BME280;32999;52.412;4.890;2023-01-25T20:03:50;102709.44;;;2.31;100.00
47260;BME280;32999;52.412;4.890;2023-01-25T20:13:24;102702.97;;;2.37;100.00
47260;BME280;32999;52.412;4.890;2023-01-25T20:18:30;102647.22;;;1.97;100.00
47260;BME280;32999;52.412;4.890;2023-01-25T20:29:19;102691.41;;;2.24;100.00
47260;BME280;32999;52.412;4.890;2023-01-25T20:40:44;102684.44;;;2.23;100.00
47260;BME280;32999;52.412;4.890;2023-01-25T20:46:27;102688.09;;;2.36;100.00
47260;BME280;32999;52.412;4.890;2023-01-25T20:51:55;102670.22;;;2.25;100.00
47260;BME280;32999;52.412;4.890;2023-01-25T21:16:24;102661.16;;;2.15;100.00
47260;BME280;32999;52.412;4.890;2023-01-25T21:33:37;102669.16;;;2.14;100.00
47260;BME280;32999;52.412;4.890;2023-01-25T22:14:33;102611.53;;;2.22;100.00
47260;BME280;32999;52.412;4.890;2023-01-25T22:19:38;102607.97;;;2.07;100.00
47260;BME280;32999;52.412;4.890;2023-01-25T22:24:51;102595.50;;;1.95;100.00
47260;BME280;32999;52.412;4.890;2023-01-25T22:29:56;102588.03;;;1.87;100.00
47260;BME280;32999;52.412;4.890;2023-01-25T22:34:58;102587.19;;;1.55;100.00
47260;BME280;32999;52.412;4.890;2023-01-25T22:40:03;102548.28;;;1.45;100.00
47260;BME280;32999;52.412;4.890;2023-01-25T22:45:07;102582.41;;;1.78;100.00
47260;BME280;32999;52.412;4.890;2023-01-25T22:50:10;102553.28;;;1.49;100.00
47260;BME280;32999;52.412;4.890;2023-01-25T23:01:01;102586.38;;;2.00;100.00
47260;BME280;32999;52.412;4.890;2023-01-25T23:06:05;102503.09;;;1.21;100.00
47260;BME280;32999;52.412;4.890;2023-01-25T23:11:10;102606.41;;;1.89;100.00
47260;BME280;32999;52.412;4.890;2023-01-25T23:16:13;102609.13;;;1.87;100.00
47260;BME280;32999;52.412;4.890;2023-01-25T23:21:17;102618.13;;;1.83;100.00
47260;BME280;32999;52.412;4.890;2023-01-25T23:26:19;102550.63;;;1.81;100.00
47260;BME280;32999;52.412;4.890;2023-01-25T23:31:26;102591.25;;;1.92;100.00
47260;BME280;32999;52.412;4.890;2023-01-25T23:36:29;102572.81;;;1.92;100.00
47260;BME280;32999;52.412;4.890;2023-01-25T23:41:32;102586.19;;;2.19;100.00
47260;BME280;32999;52.412;4.890;2023-01-25T23:46:35;102611.13;;;2.14;100.00
47260;BME280;32999;52.412;4.890;2023-01-25T23:51:43;102589.34;;;2.10;100.00
